createdAt,value
2019-03-30T00:00:08.770Z,0.00
2019-03-30T00:01:08.683Z,0.00
2019-03-30T00:02:08.607Z,0.00
2019-03-30T00:03:08.520Z,0.00
2019-03-30T00:04:08.432Z,0.00
2019-03-30T00:05:08.345Z,0.00
2019-03-30T00:06:08.273Z,0.00
2019-03-30T00:07:08.182Z,0.00
2019-03-30T00:08:08.096Z,0.00
2019-03-30T00:09:08.007Z,0.00
2019-03-30T00:10:07.934Z,0.00
2019-03-30T00:11:07.850Z,0.00
2019-03-30T00:12:07.761Z,0.00
2019-03-30T00:13:07.670Z,0.00
2019-03-30T00:14:07.583Z,0.00
2019-03-30T00:15:07.508Z,0.00
2019-03-30T00:16:07.421Z,0.00
2019-03-30T00:17:07.333Z,0.00
2019-03-30T00:18:07.246Z,0.00
2019-03-30T00:19:07.171Z,0.00
2019-03-30T00:20:07.092Z,0.00
2019-03-30T00:21:06.996Z,0.00
2019-03-30T00:22:06.998Z,0.00
2019-03-30T00:23:06.833Z,0.00
2019-03-30T00:24:06.747Z,0.00
2019-03-30T00:25:06.672Z,0.00
2019-03-30T00:26:06.572Z,0.00
2019-03-30T00:27:06.485Z,0.00
2019-03-30T00:28:06.409Z,0.00
2019-03-30T00:29:06.323Z,0.00
2019-03-30T00:30:06.234Z,0.00
2019-03-30T00:31:06.147Z,0.00
2019-03-30T00:32:06.072Z,0.00
2019-03-30T00:33:05.984Z,0.00
2019-03-30T00:34:05.899Z,0.00
2019-03-30T00:35:05.809Z,0.00
2019-03-30T00:36:05.724Z,0.00
2019-03-30T00:37:05.649Z,0.00
2019-03-30T00:38:05.560Z,0.00
2019-03-30T00:39:05.473Z,0.00
2019-03-30T00:40:05.385Z,0.00
2019-03-30T00:41:05.325Z,0.00
2019-03-30T00:42:05.227Z,0.00
2019-03-30T00:43:05.141Z,0.00
2019-03-30T00:44:05.048Z,0.00
2019-03-30T00:45:04.962Z,0.00
2019-03-30T00:46:04.886Z,0.00
2019-03-30T00:47:04.798Z,0.00
2019-03-30T00:48:04.711Z,0.00
2019-03-30T00:49:04.626Z,0.00
2019-03-30T00:50:04.551Z,0.00
2019-03-30T00:51:04.461Z,0.00
2019-03-30T00:52:04.373Z,0.00
2019-03-30T00:53:04.285Z,0.00
2019-03-30T00:54:04.211Z,0.00
2019-03-30T00:55:04.113Z,0.00
2019-03-30T00:56:04.050Z,0.00
2019-03-30T00:57:03.952Z,0.00
2019-03-30T00:58:03.862Z,0.00
2019-03-30T00:59:03.775Z,0.00
2019-03-30T01:00:03.700Z,0.00
2019-03-30T01:01:03.611Z,0.00
2019-03-30T01:02:03.524Z,0.00
2019-03-30T01:03:03.437Z,0.00
2019-03-30T01:04:03.350Z,0.00
2019-03-30T01:05:03.277Z,0.00
2019-03-30T01:06:03.203Z,0.00
2019-03-30T01:07:03.101Z,0.00
2019-03-30T01:08:03.016Z,0.00
2019-03-30T01:09:02.937Z,0.00
2019-03-30T01:10:02.850Z,0.00
2019-03-30T01:11:02.762Z,0.00
2019-03-30T01:12:02.677Z,0.00
2019-03-30T01:13:02.601Z,0.00
2019-03-30T01:14:02.502Z,0.00
2019-03-30T01:15:02.430Z,0.00
2019-03-30T01:16:02.343Z,0.00
2019-03-30T01:17:02.253Z,0.00
2019-03-30T01:18:02.164Z,0.00
2019-03-30T01:19:02.078Z,0.00
2019-03-30T01:20:03.199Z,0.00
2019-03-30T01:21:01.914Z,0.00
2019-03-30T01:22:01.829Z,0.00
2019-03-30T01:23:01.741Z,0.00
2019-03-30T01:24:01.665Z,0.00
2019-03-30T01:25:01.581Z,0.00
2019-03-30T01:26:01.502Z,0.00
2019-03-30T01:27:01.405Z,0.00
2019-03-30T01:28:01.314Z,0.00
2019-03-30T01:29:01.241Z,0.00
2019-03-30T01:30:01.154Z,0.00
2019-03-30T01:31:01.065Z,0.00
2019-03-30T01:32:00.982Z,0.00
2019-03-30T01:33:00.909Z,0.00
2019-03-30T01:34:00.804Z,0.00
2019-03-30T01:35:00.760Z,0.00
2019-03-30T01:36:00.640Z,0.00
2019-03-30T01:37:00.553Z,0.00
2019-03-30T01:38:00.465Z,0.00
2019-03-30T01:39:00.391Z,0.00
2019-03-30T01:40:00.434Z,0.00
2019-03-30T01:41:00.216Z,0.00
2019-03-30T01:42:00.134Z,0.00
2019-03-30T01:43:00.041Z,0.00
2019-03-30T01:43:59.967Z,0.00
2019-03-30T01:44:59.879Z,0.00
2019-03-30T01:45:59.804Z,0.00
2019-03-30T01:46:59.704Z,0.00
2019-03-30T01:47:59.617Z,0.00
2019-03-30T01:48:59.542Z,0.00
2019-03-30T01:49:59.454Z,0.00
2019-03-30T01:50:59.367Z,0.00
2019-03-30T01:51:59.280Z,0.00
2019-03-30T01:52:59.192Z,0.00
2019-03-30T01:53:59.108Z,0.00
2019-03-30T01:54:59.030Z,0.00
2019-03-30T01:55:58.942Z,0.00
2019-03-30T01:56:58.855Z,0.00
2019-03-30T01:57:58.767Z,0.00
2019-03-30T01:58:58.680Z,0.00
2019-03-30T01:59:58.606Z,0.00
2019-03-30T02:00:58.518Z,0.00
2019-03-30T02:01:58.431Z,0.00
2019-03-30T02:02:58.342Z,0.00
2019-03-30T02:03:58.258Z,0.00
2019-03-30T02:04:58.181Z,0.00
2019-03-30T02:05:58.093Z,0.00
2019-03-30T02:06:58.012Z,0.00
2019-03-30T02:07:57.922Z,0.00
2019-03-30T02:08:57.831Z,0.00
2019-03-30T02:09:57.748Z,0.00
2019-03-30T02:10:57.672Z,0.00
2019-03-30T02:11:57.582Z,0.00
2019-03-30T02:12:57.494Z,0.00
2019-03-30T02:13:57.410Z,0.00
2019-03-30T02:14:57.320Z,0.00
2019-03-30T02:15:57.257Z,0.00
2019-03-30T02:16:57.158Z,0.00
2019-03-30T02:17:57.070Z,0.00
2019-03-30T02:18:56.985Z,0.00
2019-03-30T02:19:56.895Z,0.00
2019-03-30T02:20:56.820Z,0.00
2019-03-30T02:21:56.733Z,0.00
2019-03-30T02:22:56.648Z,0.00
2019-03-30T02:23:56.559Z,0.00
2019-03-30T02:24:56.470Z,0.00
2019-03-30T02:25:56.383Z,0.00
2019-03-30T02:26:56.310Z,0.00
2019-03-30T02:27:56.220Z,0.00
2019-03-30T02:28:56.134Z,0.00
2019-03-30T02:29:56.058Z,0.00
2019-03-30T02:30:55.961Z,0.00
2019-03-30T02:31:55.874Z,0.00
2019-03-30T02:32:55.796Z,0.00
2019-03-30T02:33:55.714Z,0.00
2019-03-30T02:34:55.624Z,0.00
2019-03-30T02:35:55.536Z,0.00
2019-03-30T02:36:55.462Z,0.00
2019-03-30T02:37:55.373Z,0.00
2019-03-30T02:38:55.287Z,0.00
2019-03-30T02:39:55.198Z,0.00
2019-03-30T02:40:55.110Z,0.00
2019-03-30T02:41:55.027Z,0.00
2019-03-30T02:42:54.936Z,0.00
2019-03-30T02:43:54.891Z,0.00
2019-03-30T02:44:54.772Z,0.00
2019-03-30T02:45:54.686Z,0.00
2019-03-30T02:46:54.597Z,0.00
2019-03-30T02:47:54.512Z,0.00
2019-03-30T02:48:54.424Z,0.00
2019-03-30T02:49:54.350Z,0.00
2019-03-30T02:50:54.263Z,0.00
2019-03-30T02:51:54.184Z,0.00
2019-03-30T02:52:54.086Z,0.00
2019-03-30T02:53:54.000Z,0.00
2019-03-30T02:54:53.915Z,0.00
2019-03-30T02:55:53.838Z,0.00
2019-03-30T02:56:53.750Z,0.00
2019-03-30T02:57:53.664Z,0.00
2019-03-30T02:58:53.574Z,0.00
2019-03-30T02:59:53.487Z,0.00
2019-03-30T03:00:53.399Z,0.00
2019-03-30T03:01:53.326Z,0.00
2019-03-30T03:02:53.237Z,0.00
2019-03-30T03:03:53.152Z,0.00
2019-03-30T03:04:53.067Z,0.00
2019-03-30T03:05:52.976Z,0.00
2019-03-30T03:06:52.890Z,0.00
2019-03-30T03:07:52.813Z,0.00
2019-03-30T03:08:52.739Z,0.00
2019-03-30T03:09:52.639Z,0.00
2019-03-30T03:10:52.551Z,0.00
2019-03-30T03:11:52.464Z,0.00
2019-03-30T03:12:52.379Z,0.00
2019-03-30T03:13:52.289Z,0.00
2019-03-30T03:14:52.221Z,0.00
2019-03-30T03:15:52.172Z,0.00
2019-03-30T03:16:52.046Z,0.00
2019-03-30T03:17:51.962Z,0.00
2019-03-30T03:18:51.996Z,0.00
2019-03-30T03:19:51.777Z,0.00
2019-03-30T03:21:06.494Z,0.00
2019-03-30T03:21:51.615Z,0.00
2019-03-30T03:22:51.527Z,0.00
2019-03-30T03:23:51.443Z,0.00
2019-03-30T03:24:51.365Z,0.00
2019-03-30T03:25:51.266Z,0.00
2019-03-30T03:26:51.195Z,0.00
2019-03-30T03:27:51.105Z,0.00
2019-03-30T03:28:51.019Z,0.00
2019-03-30T03:29:50.942Z,0.00
2019-03-30T03:30:50.842Z,0.00
2019-03-30T03:31:50.755Z,0.00
2019-03-30T03:32:50.679Z,0.00
2019-03-30T03:33:50.599Z,0.00
2019-03-30T03:34:50.717Z,0.00
2019-03-30T03:35:50.417Z,0.00
2019-03-30T03:36:50.330Z,0.00
2019-03-30T03:37:50.245Z,0.00
2019-03-30T03:38:50.154Z,0.00
2019-03-30T03:39:50.084Z,0.00
2019-03-30T03:40:50.098Z,0.00
2019-03-30T03:41:49.906Z,0.00
2019-03-30T03:42:49.824Z,0.00
2019-03-30T03:43:49.730Z,0.00
2019-03-30T03:44:49.643Z,0.00
2019-03-30T03:45:49.573Z,0.00
2019-03-30T03:46:49.481Z,0.00
2019-03-30T03:47:49.393Z,0.00
2019-03-30T03:48:49.304Z,0.00
2019-03-30T03:49:49.218Z,0.00
2019-03-30T03:50:49.143Z,0.00
2019-03-30T03:51:49.044Z,0.00
2019-03-30T03:52:48.970Z,0.00
2019-03-30T03:53:48.883Z,0.00
2019-03-30T03:54:48.795Z,0.00
2019-03-30T03:55:48.706Z,0.00
2019-03-30T03:56:48.618Z,0.00
2019-03-30T03:57:48.552Z,0.00
2019-03-30T03:58:48.481Z,0.00
2019-03-30T03:59:48.381Z,0.00
2019-03-30T04:00:48.287Z,0.00
2019-03-30T04:01:48.206Z,0.00
2019-03-30T04:02:48.107Z,0.00
2019-03-30T04:03:48.031Z,0.00
2019-03-30T04:04:47.942Z,0.00
2019-03-30T04:05:47.863Z,0.00
2019-03-30T04:06:47.771Z,0.00
2019-03-30T04:07:47.683Z,0.00
2019-03-30T04:08:47.598Z,0.00
2019-03-30T04:09:47.507Z,0.00
2019-03-30T04:10:47.427Z,0.00
2019-03-30T04:11:47.334Z,0.00
2019-03-30T04:12:47.257Z,0.00
2019-03-30T04:13:47.181Z,0.00
2019-03-30T04:14:47.087Z,0.00
2019-03-30T04:15:46.995Z,0.00
2019-03-30T04:16:46.907Z,4.00
2019-03-30T04:17:46.823Z,4.00
2019-03-30T04:18:48.263Z,0.00
2019-03-30T04:19:46.662Z,0.00
2019-03-30T04:20:46.572Z,4.00
2019-03-30T04:21:46.485Z,4.00
2019-03-30T04:22:46.398Z,4.00
2019-03-30T04:23:46.324Z,4.00
2019-03-30T04:24:46.225Z,4.00
2019-03-30T04:25:46.136Z,8.00
2019-03-30T04:26:46.064Z,8.00
2019-03-30T04:27:45.994Z,12.00
2019-03-30T04:28:45.884Z,12.00
2019-03-30T04:29:45.797Z,16.00
2019-03-30T04:30:45.711Z,20.00
2019-03-30T04:31:45.624Z,20.00
2019-03-30T04:32:45.535Z,24.00
2019-03-30T04:33:45.475Z,32.00
2019-03-30T04:34:45.373Z,32.00
2019-03-30T04:35:45.310Z,36.00
2019-03-30T04:36:45.199Z,40.00
2019-03-30T04:37:45.123Z,48.00
2019-03-30T04:38:45.029Z,52.00
2019-03-30T04:39:44.935Z,56.00
2019-03-30T04:40:44.866Z,64.00
2019-03-30T04:41:44.773Z,72.00
2019-03-30T04:42:44.686Z,76.00
2019-03-30T04:43:44.598Z,84.00
2019-03-30T04:44:44.511Z,92.00
2019-03-30T04:45:44.424Z,100.00
2019-03-30T04:46:44.336Z,112.00
2019-03-30T04:47:44.261Z,124.00
2019-03-30T04:48:44.186Z,132.00
2019-03-30T04:49:44.087Z,148.00
2019-03-30T04:50:44.003Z,160.00
2019-03-30T04:51:56.493Z,176.00
2019-03-30T04:52:43.826Z,188.00
2019-03-30T04:53:43.742Z,200.00
2019-03-30T04:54:43.675Z,216.00
2019-03-30T04:55:43.575Z,232.00
2019-03-30T04:56:43.487Z,252.00
2019-03-30T04:57:43.400Z,276.00
2019-03-30T04:58:43.314Z,296.00
2019-03-30T04:59:43.228Z,316.00
2019-03-30T05:00:43.146Z,336.00
2019-03-30T05:01:43.062Z,360.00
2019-03-30T05:02:42.976Z,380.00
2019-03-30T05:03:42.889Z,408.00
2019-03-30T05:04:42.801Z,432.00
2019-03-30T05:05:43.240Z,460.00
2019-03-30T05:06:42.627Z,484.00
2019-03-30T05:07:42.539Z,516.00
2019-03-30T05:08:42.464Z,544.00
2019-03-30T05:09:42.379Z,572.00
2019-03-30T05:10:42.303Z,604.00
2019-03-30T05:11:42.201Z,636.00
2019-03-30T05:12:42.209Z,668.00
2019-03-30T05:13:42.029Z,704.00
2019-03-30T05:14:41.939Z,744.00
2019-03-30T05:15:41.866Z,780.00
2019-03-30T05:16:41.778Z,824.00
2019-03-30T05:17:47.629Z,860.00
2019-03-30T05:18:41.603Z,892.00
2019-03-30T05:19:41.515Z,920.00
2019-03-30T05:20:41.429Z,948.00
2019-03-30T05:21:41.342Z,976.00
2019-03-30T05:22:41.268Z,1012.00
2019-03-30T05:23:41.186Z,1064.00
2019-03-30T05:24:41.094Z,1104.00
2019-03-30T05:25:41.004Z,1124.00
2019-03-30T05:26:40.918Z,1120.00
2019-03-30T05:27:40.829Z,1156.00
2019-03-30T05:28:40.753Z,1172.00
2019-03-30T05:29:40.666Z,1200.00
2019-03-30T05:30:40.585Z,1228.00
2019-03-30T05:31:40.493Z,1268.00
2019-03-30T05:32:41.881Z,1292.00
2019-03-30T05:33:40.316Z,1328.00
2019-03-30T05:34:40.233Z,1364.00
2019-03-30T05:35:40.155Z,1380.00
2019-03-30T05:36:40.066Z,1400.00
2019-03-30T05:37:39.985Z,1412.00
2019-03-30T05:38:39.892Z,1396.00
2019-03-30T05:39:39.805Z,1400.00
2019-03-30T05:40:39.718Z,1412.00
2019-03-30T05:41:39.642Z,1464.00
2019-03-30T05:42:39.555Z,1540.00
2019-03-30T05:43:39.480Z,1584.00
2019-03-30T05:44:39.380Z,1640.00
2019-03-30T05:45:39.292Z,1668.00
2019-03-30T05:46:39.206Z,1728.00
2019-03-30T05:47:39.131Z,1788.00
2019-03-30T05:48:39.042Z,1868.00
2019-03-30T05:49:38.956Z,1944.00
2019-03-30T05:50:38.868Z,1928.00
2019-03-30T05:51:38.781Z,1884.00
2019-03-30T05:52:38.694Z,1876.00
2019-03-30T05:53:38.618Z,1980.00
2019-03-30T05:54:38.535Z,2156.00
2019-03-30T05:55:38.444Z,2200.00
2019-03-30T05:56:38.356Z,2248.00
2019-03-30T05:57:38.269Z,2284.00
2019-03-30T05:58:38.183Z,2328.00
2019-03-30T05:59:38.112Z,2364.00
2019-03-30T06:00:38.019Z,2400.00
2019-03-30T06:01:37.932Z,2416.00
2019-03-30T06:02:37.845Z,2408.00
2019-03-30T06:03:37.757Z,2464.00
2019-03-30T06:04:37.671Z,2508.00
2019-03-30T06:05:37.595Z,2488.00
2019-03-30T06:06:37.509Z,2500.00
2019-03-30T06:07:37.433Z,2468.00
2019-03-30T06:08:37.333Z,2456.00
2019-03-30T06:09:37.245Z,2476.00
2019-03-30T06:10:38.774Z,2468.00
2019-03-30T06:11:37.083Z,2572.00
2019-03-30T06:12:36.998Z,2736.00
2019-03-30T06:13:36.909Z,2804.00
2019-03-30T06:14:36.821Z,2860.00
2019-03-30T06:15:36.748Z,2868.00
2019-03-30T06:16:36.659Z,2908.00
2019-03-30T06:17:36.571Z,2932.00
2019-03-30T06:18:36.485Z,2924.00
2019-03-30T06:19:36.396Z,2956.00
2019-03-30T06:20:36.322Z,3084.00
2019-03-30T06:21:36.243Z,3184.00
2019-03-30T06:22:40.489Z,3160.00
2019-03-30T06:23:36.065Z,3168.00
2019-03-30T06:24:35.974Z,3348.00
2019-03-30T06:25:35.900Z,3416.00
2019-03-30T06:26:35.811Z,3444.00
2019-03-30T06:27:35.722Z,3644.00
2019-03-30T06:28:35.635Z,3780.00
2019-03-30T06:29:35.560Z,3620.00
2019-03-30T06:30:35.472Z,3528.00
2019-03-30T06:31:35.386Z,3516.00
2019-03-30T06:32:35.298Z,3880.00
2019-03-30T06:33:35.222Z,3824.00
2019-03-30T06:34:35.136Z,3708.00
2019-03-30T06:35:35.048Z,3632.00
2019-03-30T06:36:34.961Z,3520.00
2019-03-30T06:37:34.875Z,3836.00
2019-03-30T06:38:34.799Z,3952.00
2019-03-30T06:39:37.085Z,3948.00
2019-03-30T06:40:34.624Z,3928.00
2019-03-30T06:41:34.552Z,3884.00
2019-03-30T06:42:34.462Z,3932.00
2019-03-30T06:43:34.374Z,3892.00
2019-03-30T06:44:34.300Z,3900.00
2019-03-30T06:45:34.212Z,3972.00
2019-03-30T06:46:34.124Z,4016.00
2019-03-30T06:47:34.040Z,4044.00
2019-03-30T06:48:36.064Z,4140.00
2019-03-30T06:49:33.878Z,4248.00
2019-03-30T06:50:33.789Z,4348.00
2019-03-30T06:51:33.701Z,4340.00
2019-03-30T06:52:33.624Z,4400.00
2019-03-30T06:53:33.539Z,4444.00
2019-03-30T06:54:33.450Z,4460.00
2019-03-30T06:55:33.375Z,4288.00
2019-03-30T06:56:33.289Z,4236.00
2019-03-30T06:57:33.207Z,4088.00
2019-03-30T06:58:33.127Z,3916.00
2019-03-30T06:59:33.038Z,3824.00
2019-03-30T07:00:32.955Z,3620.00
2019-03-30T07:01:32.863Z,3624.00
2019-03-30T07:02:32.797Z,3776.00
2019-03-30T07:03:32.701Z,3936.00
2019-03-30T07:04:32.615Z,4064.00
2019-03-30T07:05:32.545Z,4352.00
2019-03-30T07:06:32.453Z,4356.00
2019-03-30T07:07:32.364Z,4404.00
2019-03-30T07:08:32.290Z,4420.00
2019-03-30T07:09:32.205Z,4648.00
2019-03-30T07:10:32.118Z,4740.00
2019-03-30T07:11:32.043Z,4892.00
2019-03-30T07:12:31.963Z,4984.00
2019-03-30T07:13:31.867Z,5012.00
2019-03-30T07:14:31.791Z,5100.00
2019-03-30T07:15:31.704Z,5040.00
2019-03-30T07:16:31.616Z,5204.00
2019-03-30T07:17:31.541Z,5300.00
2019-03-30T07:18:31.456Z,5384.00
2019-03-30T07:19:31.370Z,5424.00
2019-03-30T07:20:31.296Z,5488.00
2019-03-30T07:21:31.203Z,5640.00
2019-03-30T07:22:31.135Z,5732.00
2019-03-30T07:23:31.041Z,5900.00
2019-03-30T07:24:30.953Z,6028.00
2019-03-30T07:25:30.871Z,6012.00
2019-03-30T07:26:30.793Z,6060.00
2019-03-30T07:27:30.703Z,6124.00
2019-03-30T07:28:30.630Z,6236.00
2019-03-30T07:29:30.546Z,6256.00
2019-03-30T07:30:30.455Z,5980.00
2019-03-30T07:31:30.383Z,6296.00
2019-03-30T07:32:30.293Z,6328.00
2019-03-30T07:33:30.218Z,6388.00
2019-03-30T07:34:30.130Z,6432.00
2019-03-30T07:35:30.055Z,6484.00
2019-03-30T07:36:29.967Z,6536.00
2019-03-30T07:37:29.892Z,6580.00
2019-03-30T07:38:29.805Z,6672.00
2019-03-30T07:39:29.730Z,6720.00
2019-03-30T07:40:29.644Z,6768.00
2019-03-30T07:41:29.568Z,6844.00
2019-03-30T07:42:29.480Z,6888.00
2019-03-30T07:43:29.418Z,6944.00
2019-03-30T07:44:29.320Z,7020.00
2019-03-30T07:45:29.244Z,7068.00
2019-03-30T07:46:29.156Z,7120.00
2019-03-30T07:47:29.081Z,7144.00
2019-03-30T07:48:28.994Z,7264.00
2019-03-30T07:49:28.920Z,7324.00
2019-03-30T07:50:28.847Z,7416.00
2019-03-30T07:51:28.756Z,7392.00
2019-03-30T07:52:28.681Z,7432.00
2019-03-30T07:53:28.600Z,7356.00
2019-03-30T07:54:28.519Z,7460.00
2019-03-30T07:55:28.449Z,7404.00
2019-03-30T07:56:28.369Z,7200.00
2019-03-30T07:57:28.282Z,7556.00
2019-03-30T07:58:28.207Z,7600.00
2019-03-30T07:59:28.121Z,7692.00
2019-03-30T08:00:30.667Z,7760.00
2019-03-30T08:01:27.970Z,7768.00
2019-03-30T08:02:27.884Z,8184.00
2019-03-30T08:03:27.808Z,8796.00
2019-03-30T08:04:28.816Z,9088.00
2019-03-30T08:05:27.658Z,9048.00
2019-03-30T08:06:27.571Z,8948.00
2019-03-30T08:07:27.496Z,8820.00
2019-03-30T08:08:27.421Z,8652.00
2019-03-30T08:09:27.346Z,8400.00
2019-03-30T08:10:27.258Z,8196.00
2019-03-30T08:11:27.187Z,8080.00
2019-03-30T08:12:27.109Z,8028.00
2019-03-30T08:13:27.035Z,8076.00
2019-03-30T08:14:26.958Z,8156.00
2019-03-30T08:15:26.873Z,8176.00
2019-03-30T08:16:26.797Z,8168.00
2019-03-30T08:17:26.711Z,7468.00
2019-03-30T08:18:26.634Z,8084.00
2019-03-30T08:19:26.560Z,8096.00
2019-03-30T08:20:26.487Z,8056.00
2019-03-30T08:21:26.410Z,8068.00
2019-03-30T08:22:26.322Z,8184.00
2019-03-30T08:23:39.516Z,8004.00
2019-03-30T08:24:27.545Z,8144.00
2019-03-30T08:25:26.099Z,8340.00
2019-03-30T08:26:26.013Z,8180.00
2019-03-30T08:27:25.935Z,8204.00
2019-03-30T08:28:25.860Z,8356.00
2019-03-30T08:29:25.786Z,8368.00
2019-03-30T08:30:25.712Z,8392.00
2019-03-30T08:31:25.649Z,8552.00
2019-03-30T08:32:25.550Z,8544.00
2019-03-30T08:33:25.481Z,8592.00
2019-03-30T08:34:25.400Z,8692.00
2019-03-30T08:35:25.331Z,8676.00
2019-03-30T08:36:25.249Z,8712.00
2019-03-30T08:37:25.164Z,8704.00
2019-03-30T08:38:25.087Z,8568.00
2019-03-30T08:39:25.012Z,7964.00
2019-03-30T08:40:24.937Z,7816.00
2019-03-30T08:41:24.862Z,8260.00
2019-03-30T08:42:24.787Z,8444.00
2019-03-30T08:43:24.736Z,8812.00
2019-03-30T08:44:24.637Z,8868.00
2019-03-30T08:45:24.552Z,8900.00
2019-03-30T08:46:24.476Z,8612.00
2019-03-30T08:47:24.403Z,8268.00
2019-03-30T08:48:24.326Z,8244.00
2019-03-30T08:49:24.252Z,7744.00
2019-03-30T08:50:24.176Z,8100.00
2019-03-30T08:51:24.090Z,8208.00
2019-03-30T08:52:24.013Z,8364.00
2019-03-30T08:53:23.938Z,8252.00
2019-03-30T08:54:23.865Z,7916.00
2019-03-30T08:55:23.796Z,8120.00
2019-03-30T08:56:23.713Z,8156.00
2019-03-30T08:57:23.638Z,7908.00
2019-03-30T08:58:23.552Z,8092.00
2019-03-30T08:59:23.477Z,8220.00
2019-03-30T09:00:23.405Z,8180.00
2019-03-30T09:01:23.328Z,8264.00
2019-03-30T09:02:23.261Z,8352.00
2019-03-30T09:03:23.179Z,8256.00
2019-03-30T09:04:23.114Z,8160.00
2019-03-30T09:05:23.018Z,8052.00
2019-03-30T09:06:22.941Z,7956.00
2019-03-30T09:07:22.865Z,7732.00
2019-03-30T09:08:22.790Z,7556.00
2019-03-30T09:09:22.719Z,7532.00
2019-03-30T09:10:22.630Z,7348.00
2019-03-30T09:11:22.559Z,7176.00
2019-03-30T09:12:22.478Z,6716.00
2019-03-30T09:13:22.403Z,6296.00
2019-03-30T09:14:22.333Z,5664.00
2019-03-30T09:15:22.254Z,6100.00
2019-03-30T09:16:22.168Z,6116.00
2019-03-30T09:17:22.092Z,6260.00
2019-03-30T09:18:22.034Z,6352.00
2019-03-30T09:19:21.941Z,6676.00
2019-03-30T09:20:21.857Z,6532.00
2019-03-30T09:21:21.779Z,6952.00
2019-03-30T09:22:21.704Z,7288.00
2019-03-30T09:23:21.631Z,7228.00
2019-03-30T09:24:21.543Z,7052.00
2019-03-30T09:25:21.469Z,7048.00
2019-03-30T09:26:21.392Z,6920.00
2019-03-30T09:27:21.317Z,6788.00
2019-03-30T09:28:21.242Z,6380.00
2019-03-30T09:29:21.156Z,6280.00
2019-03-30T09:30:21.082Z,6556.00
2019-03-30T09:31:21.006Z,6692.00
2019-03-30T09:32:20.932Z,6452.00
2019-03-30T09:33:20.860Z,6608.00
2019-03-30T09:34:20.768Z,6440.00
2019-03-30T09:35:20.692Z,6028.00
2019-03-30T09:36:20.618Z,6048.00
2019-03-30T09:37:20.531Z,6000.00
2019-03-30T09:38:20.460Z,5940.00
2019-03-30T09:39:20.385Z,5868.00
2019-03-30T09:40:20.307Z,5748.00
2019-03-30T09:41:20.233Z,5560.00
2019-03-30T09:42:20.143Z,5704.00
2019-03-30T09:43:20.068Z,5716.00
2019-03-30T09:44:19.993Z,5640.00
2019-03-30T09:45:19.919Z,5400.00
2019-03-30T09:46:19.840Z,5392.00
2019-03-30T09:47:19.757Z,5448.00
2019-03-30T09:48:19.682Z,5396.00
2019-03-30T09:49:19.607Z,5416.00
2019-03-30T09:50:19.520Z,5524.00
2019-03-30T09:51:19.447Z,5716.00
2019-03-30T09:52:19.381Z,5732.00
2019-03-30T09:53:19.308Z,5636.00
2019-03-30T09:54:24.062Z,5652.00
2019-03-30T09:55:19.141Z,5712.00
2019-03-30T09:56:19.060Z,5672.00
2019-03-30T09:57:18.973Z,5620.00
2019-03-30T09:58:18.896Z,5628.00
2019-03-30T09:59:18.822Z,5732.00
2019-03-30T10:00:18.733Z,5564.00
2019-03-30T10:01:18.659Z,5424.00
2019-03-30T10:02:18.585Z,5616.00
2019-03-30T10:03:18.496Z,5712.00
2019-03-30T10:04:18.434Z,5132.00
2019-03-30T10:05:18.345Z,4960.00
2019-03-30T10:06:18.261Z,5132.00
2019-03-30T10:07:18.184Z,6092.00
2019-03-30T10:08:18.110Z,6432.00
2019-03-30T10:09:18.034Z,6824.00
2019-03-30T10:10:17.948Z,6776.00
2019-03-30T10:11:17.875Z,6612.00
2019-03-30T10:12:17.796Z,6724.00
2019-03-30T10:13:17.711Z,7268.00
2019-03-30T10:14:17.623Z,7712.00
2019-03-30T10:15:17.547Z,7880.00
2019-03-30T10:16:17.473Z,7964.00
2019-03-30T10:17:17.386Z,8432.00
2019-03-30T10:18:17.312Z,8600.00
2019-03-30T10:19:17.236Z,8244.00
2019-03-30T10:20:17.152Z,8484.00
2019-03-30T10:21:17.086Z,8444.00
2019-03-30T10:22:16.997Z,8776.00
2019-03-30T10:23:16.915Z,9264.00
2019-03-30T10:24:16.836Z,8548.00
2019-03-30T10:25:16.761Z,8704.00
2019-03-30T10:26:16.675Z,8484.00
2019-03-30T10:27:16.598Z,7640.00
2019-03-30T10:28:16.523Z,7940.00
2019-03-30T10:29:16.439Z,7388.00
2019-03-30T10:30:16.365Z,7776.00
2019-03-30T10:31:16.286Z,7284.00
2019-03-30T10:32:16.200Z,6840.00
2019-03-30T10:33:16.124Z,7156.00
2019-03-30T10:34:16.051Z,8024.00
2019-03-30T10:35:15.962Z,8060.00
2019-03-30T10:36:15.887Z,7940.00
2019-03-30T10:37:15.813Z,6988.00
2019-03-30T10:38:15.725Z,8380.00
2019-03-30T10:39:15.650Z,8052.00
2019-03-30T10:40:15.575Z,8168.00
2019-03-30T10:41:15.488Z,6912.00
2019-03-30T10:42:15.414Z,9284.00
2019-03-30T10:43:15.338Z,9788.00
2019-03-30T10:44:15.265Z,11464.00
2019-03-30T10:45:15.176Z,12136.00
2019-03-30T10:46:15.100Z,10236.00
2019-03-30T10:47:15.026Z,10664.00
2019-03-30T10:48:14.939Z,9236.00
2019-03-30T10:49:14.946Z,11092.00
2019-03-30T10:50:14.795Z,8708.00
2019-03-30T10:51:14.713Z,10740.00
2019-03-30T10:52:14.630Z,12772.00
2019-03-30T10:53:14.553Z,11208.00
2019-03-30T10:54:14.477Z,10488.00
2019-03-30T10:55:14.390Z,9532.00
2019-03-30T10:56:14.315Z,9524.00
2019-03-30T10:57:14.245Z,9244.00
2019-03-30T10:58:14.158Z,9376.00
2019-03-30T10:59:14.077Z,9420.00
2019-03-30T11:00:14.003Z,10232.00
2019-03-30T11:01:13.940Z,10136.00
2019-03-30T11:02:13.867Z,8720.00
2019-03-30T11:03:13.766Z,7760.00
2019-03-30T11:04:13.694Z,7472.00
2019-03-30T11:05:13.615Z,7288.00
2019-03-30T11:06:13.543Z,7096.00
2019-03-30T11:07:13.465Z,6988.00
2019-03-30T11:08:13.462Z,6940.00
2019-03-30T11:09:13.306Z,8172.00
2019-03-30T11:10:13.229Z,7016.00
2019-03-30T11:11:13.153Z,7096.00
2019-03-30T11:12:13.066Z,8192.00
2019-03-30T11:13:12.992Z,6680.00
2019-03-30T11:14:12.917Z,9264.00
2019-03-30T11:15:12.842Z,8612.00
2019-03-30T11:16:12.775Z,9988.00
2019-03-30T11:17:12.694Z,13892.00
2019-03-30T11:18:12.603Z,14112.00
2019-03-30T11:19:12.529Z,14344.00
2019-03-30T11:20:12.455Z,14364.00
2019-03-30T11:21:12.392Z,14264.00
2019-03-30T11:22:12.306Z,14048.00
2019-03-30T11:23:12.218Z,14140.00
2019-03-30T11:24:12.145Z,14116.00
2019-03-30T11:25:12.067Z,14420.00
2019-03-30T11:26:11.993Z,14332.00
2019-03-30T11:27:11.918Z,14288.00
2019-03-30T11:28:11.842Z,14336.00
2019-03-30T11:29:11.774Z,14216.00
2019-03-30T11:30:11.693Z,14144.00
2019-03-30T11:31:11.624Z,13732.00
2019-03-30T11:32:11.544Z,13652.00
2019-03-30T11:33:11.479Z,12996.00
2019-03-30T11:34:11.406Z,13008.00
2019-03-30T11:35:11.331Z,13000.00
2019-03-30T11:36:11.255Z,13804.00
2019-03-30T11:37:11.181Z,14400.00
2019-03-30T11:38:11.105Z,14684.00
2019-03-30T11:39:11.045Z,14632.00
2019-03-30T11:40:10.975Z,14644.00
2019-03-30T11:41:10.899Z,15068.00
2019-03-30T11:42:10.820Z,15048.00
2019-03-30T11:43:10.756Z,14688.00
2019-03-30T11:44:10.681Z,14536.00
2019-03-30T11:45:10.606Z,14228.00
2019-03-30T11:46:10.532Z,13852.00
2019-03-30T11:47:10.470Z,13596.00
2019-03-30T11:48:10.400Z,13604.00
2019-03-30T11:49:10.324Z,13796.00
2019-03-30T11:50:10.257Z,14040.00
2019-03-30T11:51:10.182Z,13976.00
2019-03-30T11:52:10.122Z,13688.00
2019-03-30T11:53:10.047Z,13220.00
2019-03-30T11:54:09.971Z,13216.00
2019-03-30T11:55:21.045Z,13620.00
2019-03-30T11:56:09.834Z,13476.00
2019-03-30T11:57:09.759Z,13660.00
2019-03-30T11:58:09.695Z,13212.00
2019-03-30T11:59:09.621Z,13052.00
2019-03-30T12:00:09.558Z,12964.00
2019-03-30T12:01:09.484Z,12912.00
2019-03-30T12:02:09.410Z,13092.00
2019-03-30T12:03:09.347Z,13320.00
2019-03-30T12:04:09.272Z,13388.00
2019-03-30T12:05:09.222Z,13460.00
2019-03-30T12:06:09.142Z,13568.00
2019-03-30T12:07:09.072Z,13664.00
2019-03-30T12:08:08.997Z,13536.00
2019-03-30T12:09:08.922Z,13376.00
2019-03-30T12:10:08.859Z,13144.00
2019-03-30T12:11:08.785Z,12904.00
2019-03-30T12:12:08.723Z,13012.00
2019-03-30T12:13:08.648Z,12956.00
2019-03-30T12:14:08.584Z,12824.00
2019-03-30T12:15:08.510Z,12796.00
2019-03-30T12:16:08.436Z,12736.00
2019-03-30T12:17:08.373Z,12696.00
2019-03-30T12:18:08.299Z,12540.00
2019-03-30T12:19:08.235Z,12436.00
2019-03-30T12:20:08.160Z,12372.00
2019-03-30T12:21:08.085Z,12408.00
2019-03-30T12:22:08.023Z,12388.00
2019-03-30T12:23:07.950Z,12416.00
2019-03-30T12:24:07.879Z,12312.00
2019-03-30T12:25:07.811Z,11988.00
2019-03-30T12:26:07.751Z,11956.00
2019-03-30T12:27:07.662Z,11988.00
2019-03-30T12:28:07.601Z,11936.00